createdAt,value
2018-11-22T13:06:20.671Z,76.20
2018-11-22T13:09:01.326Z,77.90
2018-11-22T13:11:47.542Z,77.20
2018-11-22T13:14:22.912Z,77.20
2018-11-22T13:17:03.325Z,77.10
2018-11-22T13:19:43.671Z,77.50
2018-11-22T13:22:24.141Z,77.30
2018-11-22T13:25:04.532Z,77.20
2018-11-22T13:27:45.220Z,77.30
2018-11-22T13:30:30.304Z,77.40
2018-11-22T13:33:10.716Z,77.40
2018-11-22T13:35:51.037Z,77.40
2018-11-22T13:38:31.438Z,77.40
2018-11-22T13:41:11.672Z,77.50
2018-11-22T13:43:52.291Z,77.40
2018-11-22T13:46:32.883Z,77.40
2018-11-22T13:50:15.516Z,77.50
2018-11-22T13:52:57.629Z,77.60
2018-11-22T13:55:38.189Z,77.60
2018-11-22T13:58:18.387Z,77.60
2018-11-22T14:00:59.008Z,77.60
2018-11-22T14:03:39.340Z,77.70
2018-11-22T14:06:23.647Z,77.60
2018-11-22T14:09:04.110Z,77.80
2018-11-22T14:11:44.501Z,77.70
2018-11-22T14:14:24.620Z,77.80
2018-11-22T14:17:05.344Z,77.80
2018-11-22T14:19:45.689Z,77.90
2018-11-22T14:22:26.488Z,77.90
2018-11-22T14:25:06.832Z,78.00
2018-11-22T14:27:48.057Z,78.00
2018-11-22T14:30:30.972Z,78.00
2018-11-22T14:33:11.609Z,78.10
2018-11-22T14:35:52.125Z,78.20
2018-11-22T14:38:32.733Z,78.20
2018-11-22T14:41:13.229Z,78.30
2018-11-22T14:44:08.513Z,78.30
2018-11-22T14:46:49.660Z,78.30
2018-11-22T14:49:30.734Z,78.30
2018-11-22T14:52:12.166Z,78.30
2018-11-22T14:54:53.154Z,78.40
2018-11-22T14:57:33.980Z,78.30
2018-11-22T15:00:16.089Z,78.40
2018-11-22T15:02:56.515Z,78.30
2018-11-22T15:05:37.437Z,78.30
2018-11-22T15:08:18.718Z,78.40
2018-11-22T15:11:00.191Z,78.50
2018-11-22T15:13:40.676Z,78.50
2018-11-22T15:16:21.278Z,78.50
2018-11-22T15:19:01.710Z,78.50
2018-11-22T15:21:42.347Z,78.50
2018-11-22T15:24:22.753Z,78.40
2018-11-22T15:27:03.469Z,78.40
2018-11-22T15:29:43.832Z,78.30
2018-11-22T15:32:24.719Z,78.30
2018-11-22T15:35:05.045Z,78.40
2018-11-22T15:37:45.621Z,78.40
2018-11-22T15:40:27.146Z,78.30
2018-11-22T15:43:09.082Z,78.30
2018-11-22T15:56:53.185Z,78.40
2018-11-22T15:59:34.234Z,78.40
2018-11-22T16:02:21.198Z,78.20
2018-11-22T16:05:01.713Z,78.20
2018-11-22T16:07:43.066Z,78.20
2018-11-22T16:10:26.822Z,78.20
2018-11-22T16:13:08.727Z,78.20
2018-11-22T16:15:51.897Z,78.20
2018-11-22T16:18:36.419Z,78.20
2018-11-22T16:21:16.859Z,78.10
2018-11-22T16:23:59.307Z,78.20
2018-11-22T16:26:40.529Z,78.20
2018-11-22T16:29:21.876Z,78.10
2018-11-22T16:32:03.235Z,78.10
2018-11-22T16:34:44.641Z,78.10
2018-11-22T16:37:25.196Z,78.00
2018-11-22T16:40:06.495Z,78.10
2018-11-22T16:42:47.594Z,78.10
2018-11-22T16:45:31.393Z,78.10
2018-11-22T16:48:13.738Z,78.20
2018-11-22T16:50:54.350Z,78.10
2018-11-22T16:53:34.963Z,78.00
2018-11-22T16:56:15.707Z,78.00
2018-11-22T16:58:56.150Z,78.10
2018-11-22T17:01:38.226Z,77.90
2018-11-22T17:04:18.694Z,77.90
2018-11-22T17:07:00.598Z,77.90
2018-11-22T17:09:41.125Z,77.80
2018-11-22T17:12:22.426Z,77.70
2018-11-22T17:15:03.159Z,77.80
2018-11-22T17:17:43.987Z,77.60
2018-11-22T17:20:25.320Z,77.80
2018-11-22T17:23:06.460Z,77.80
2018-11-22T17:25:47.164Z,77.70
2018-11-22T17:28:27.825Z,77.70
2018-11-22T17:31:08.730Z,77.70
2018-11-22T17:33:49.442Z,77.80
2018-11-22T17:36:30.008Z,77.80
2018-11-22T17:39:15.977Z,77.70
2018-11-22T17:43:24.502Z,77.80
2018-11-22T17:46:05.423Z,77.90
2018-11-22T17:48:45.847Z,77.90
2018-11-22T17:51:26.906Z,78.00
2018-11-22T17:54:07.309Z,77.80
2018-11-22T17:56:47.870Z,77.90
2018-11-22T17:59:28.270Z,77.90
2018-11-22T18:02:09.170Z,78.00
2018-11-22T18:04:49.591Z,78.00
2018-11-22T18:07:30.423Z,78.00
2018-11-22T18:10:10.903Z,78.00
2018-11-22T18:12:52.184Z,77.80
2018-11-22T18:15:38.628Z,77.90
2018-11-22T18:18:19.405Z,78.00
2018-11-22T18:20:59.875Z,77.90
2018-11-22T18:23:40.523Z,78.00
2018-11-22T18:26:21.021Z,77.90
2018-11-22T18:29:01.636Z,78.00
2018-11-22T18:31:42.287Z,77.90
2018-11-22T18:34:23.436Z,77.80
2018-11-22T18:37:03.930Z,77.90
2018-11-22T18:39:44.442Z,77.80
2018-11-22T18:42:24.802Z,77.80
2018-11-22T18:45:05.327Z,77.80
2018-11-22T18:47:46.485Z,77.70
2018-11-22T18:50:28.279Z,77.60
2018-11-22T18:53:08.704Z,77.40
2018-11-22T18:55:49.361Z,77.40
2018-11-22T18:58:29.701Z,77.40
2018-11-22T19:01:10.327Z,77.40
2018-11-22T19:03:50.593Z,77.50
2018-11-22T19:06:33.010Z,77.30
2018-11-22T19:09:13.820Z,77.40
2018-11-22T19:11:54.596Z,77.40
2018-11-22T19:14:35.027Z,77.50
2018-11-22T19:17:15.492Z,77.50
2018-11-22T19:19:55.906Z,77.50
2018-11-22T19:22:36.677Z,77.30
2018-11-22T19:25:17.118Z,77.20
2018-11-22T19:27:58.044Z,77.30
2018-11-22T19:30:39.575Z,77.20
2018-11-22T19:33:21.707Z,77.10
2018-11-22T19:36:02.129Z,77.10
2018-11-22T19:38:42.947Z,77.00
2018-11-22T19:41:23.452Z,76.90
2018-11-22T19:44:03.982Z,76.90
2018-11-22T19:46:44.440Z,76.80
2018-11-22T19:49:24.945Z,76.90
2018-11-22T19:52:05.393Z,76.60
2018-11-22T19:54:46.097Z,76.60
2018-11-22T19:57:26.361Z,76.60
2018-11-22T20:00:07.752Z,76.70
2018-11-22T20:02:48.837Z,76.60
2018-11-22T20:05:30.127Z,76.50
2018-11-22T20:08:12.035Z,76.40
2018-11-22T20:10:53.860Z,76.40
2018-11-22T20:13:34.534Z,76.40
2018-11-22T20:16:15.143Z,76.30
2018-11-22T20:18:55.604Z,76.30
2018-11-22T20:21:36.373Z,76.10
2018-11-22T20:24:16.576Z,76.20
2018-11-22T20:26:57.005Z,76.20
2018-11-22T20:29:37.349Z,76.10
2018-11-22T20:32:17.706Z,76.20
2018-11-22T20:34:58.165Z,76.20
2018-11-22T20:37:38.768Z,76.20
2018-11-22T20:40:20.655Z,76.10
2018-11-22T20:43:01.617Z,76.00
2018-11-22T20:45:42.057Z,76.00
2018-11-22T20:48:22.941Z,76.00
2018-11-22T20:51:03.315Z,75.90
2018-11-22T20:53:44.006Z,75.80
2018-11-22T20:56:24.333Z,75.80
2018-11-22T20:59:05.120Z,75.50
2018-11-22T21:01:48.668Z,75.70
2018-11-22T21:04:26.789Z,75.70
2018-11-22T21:07:07.307Z,75.60
2018-11-22T21:09:47.825Z,75.60
2018-11-22T21:12:28.222Z,75.60
2018-11-22T21:15:18.671Z,75.50
2018-11-22T21:18:02.394Z,75.50
2018-11-22T21:20:44.520Z,75.50
2018-11-22T21:23:24.869Z,75.50
2018-11-22T21:26:05.605Z,75.40
2018-11-22T21:28:46.113Z,75.20
2018-11-22T21:31:26.632Z,75.30
2018-11-22T21:34:07.251Z,75.20
2018-11-22T21:36:47.761Z,75.30
2018-11-22T21:39:28.265Z,75.30
2018-11-22T21:42:08.842Z,75.30
2018-11-22T21:44:49.222Z,75.20
2018-11-22T21:47:30.090Z,75.30
2018-11-22T21:50:11.649Z,75.90
2018-11-22T21:52:52.367Z,75.20
2018-11-22T21:55:33.230Z,74.90
2018-11-22T21:58:13.962Z,74.80
2018-11-22T22:00:54.448Z,74.70
2018-11-22T22:03:35.112Z,74.80
2018-11-22T22:06:15.769Z,75.60
2018-11-22T22:08:56.508Z,74.60
2018-11-22T22:11:37.005Z,74.50
2018-11-22T22:14:17.868Z,74.60
2018-11-22T22:16:58.313Z,74.50
2018-11-22T22:19:39.174Z,74.60
2018-11-22T22:22:19.847Z,74.50
2018-11-22T22:25:00.806Z,74.70
2018-11-22T22:27:42.029Z,74.70
2018-11-22T22:30:27.434Z,74.70
2018-11-22T22:33:08.957Z,74.70
2018-11-22T22:35:49.607Z,74.70
2018-11-22T22:38:30.155Z,74.50
2018-11-22T22:41:11.072Z,75.50
2018-11-22T22:43:51.437Z,74.40
2018-11-22T22:46:32.146Z,74.30
2018-11-22T22:49:12.634Z,74.30
2018-11-22T22:51:53.120Z,74.10
2018-11-22T22:54:33.552Z,74.20
2018-11-22T22:57:14.296Z,74.20
2018-11-22T22:59:54.960Z,74.20
2018-11-22T23:02:35.958Z,74.20
2018-11-22T23:05:16.475Z,74.20
2018-11-22T23:07:57.167Z,74.20
2018-11-22T23:10:37.517Z,74.20
2018-11-22T23:13:18.153Z,74.30
2018-11-22T23:15:58.651Z,74.10
2018-11-22T23:18:39.588Z,74.10
2018-11-22T23:21:20.101Z,73.90
2018-11-22T23:24:00.865Z,73.90
2018-11-22T23:26:42.009Z,73.90
2018-11-22T23:29:22.720Z,74.00
2018-11-22T23:32:03.164Z,73.90
2018-11-22T23:34:43.889Z,73.80
2018-11-22T23:37:24.315Z,73.70
2018-11-22T23:40:04.939Z,73.80
2018-11-22T23:42:45.633Z,73.70
2018-11-22T23:45:27.640Z,73.70
2018-11-22T23:48:08.070Z,73.80
2018-11-22T23:50:49.008Z,73.80
2018-11-22T23:53:29.290Z,73.70
2018-11-22T23:56:10.230Z,73.70
2018-11-22T23:58:50.930Z,73.70
